Time;durP1;ratioP1;P1;durP2;ratioP2;P2;SDS_P1;SDS_P2;PMS_P1;PMS_P2;Temp;Humidity;BMP_temperature;BMP_pressure;BME280_temperature;BME280_humidity;BME280_pressure;Samples;Min_cycle;Max_cycle;Signal;HPM_P1;HPM_P2
2020/12/17 00:01:32;;;;;;;;;35.50;34.00;;;;;4.49;62.59;102633.50;4417872;32;12317;-75
2020/12/17 00:04:00;;;;;;;;;34.50;30.50;;;;;4.54;62.77;102630.03;4419186;32;12370;-75
2020/12/17 00:06:56;;;;;;;;;42.25;40.25;;;;;4.44;62.33;102627.91;4418156;32;12323;-75
2020/12/17 00:09:24;;;;;;;;;46.00;39.50;;;;;4.34;62.45;102625.78;4407425;32;12399;-75
2020/12/17 00:11:55;;;;;;;;;38.75;35.00;;;;;4.20;62.73;102627.13;4392254;32;12374;-75
2020/12/17 00:14:23;;;;;;;;;34.25;33.00;;;;;4.37;63.33;102627.19;4406929;32;12384;-75
2020/12/17 00:17:18;;;;;;;;;32.25;31.75;;;;;4.59;62.71;102630.13;4408750;32;12319;-76
2020/12/17 00:19:46;;;;;;;;;38.50;37.25;;;;;4.64;62.52;102622.00;4421858;32;12378;-75
2020/12/17 00:22:41;;;;;;;;;33.25;33.25;;;;;4.46;62.68;102617.56;4412376;32;12420;-76
2020/12/17 00:25:37;;;;;;;;;42.25;36.75;;;;;4.50;62.24;102624.19;4418606;32;12307;-76
2020/12/17 00:28:33;;;;;;;;;43.75;41.25;;;;;4.35;62.72;102619.22;4409904;32;12358;-75
2020/12/17 00:31:00;;;;;;;;;38.00;38.00;;;;;4.42;62.96;102625.41;4407004;32;12372;-76
2020/12/17 00:33:57;;;;;;;;;50.25;43.75;;;;;4.59;62.61;102624.62;4405544;32;12384;-76
2020/12/17 00:36:53;;;;;;;;;48.75;43.75;;;;;4.54;62.90;102632.78;4405011;32;12453;-76
2020/12/17 00:39:49;;;;;;;;;47.50;41.25;;;;;4.52;63.50;102630.25;4420516;32;12346;-75
2020/12/17 00:42:16;;;;;;;;;47.25;42.50;;;;;4.54;63.29;102633.63;4412171;32;12347;-75
2020/12/17 00:45:13;;;;;;;;;52.00;45.50;;;;;4.47;63.37;102638.41;4407910;32;12367;-74
2020/12/17 00:47:42;;;;;;;;;50.75;41.50;;;;;4.53;63.24;102634.69;4421859;32;12402;-75
2020/12/17 00:50:24;;;;;;;;;43.75;39.75;;;;;4.48;63.40;102631.84;4395794;32;12412;-75
2020/12/17 00:53:23;;;;;;;;;43.00;41.25;;;;;4.39;63.90;102630.56;4402529;32;12326;-75
2020/12/17 00:56:18;;;;;;;;;45.50;41.25;;;;;4.47;63.85;102633.75;4410609;32;12342;-75
2020/12/17 00:59:14;;;;;;;;;28.00;27.00;;;;;4.43;63.87;102627.06;4409912;32;12417;-76
2020/12/17 01:02:09;;;;;;;;;40.25;37.00;;;;;4.56;63.70;102630.63;4426971;32;12409;-75
2020/12/17 01:05:06;;;;;;;;;44.25;41.00;;;;;4.52;63.83;102618.47;4434232;32;12449;-75
2020/12/17 01:08:03;;;;;;;;;43.75;41.25;;;;;4.44;64.27;102619.69;4448138;32;12325;-75
2020/12/17 01:10:35;;;;;;;;;46.50;43.75;;;;;4.49;64.03;102621.69;4438761;32;12346;-75
2020/12/17 01:13:31;;;;;;;;;27.00;26.67;;;;;4.43;64.24;102616.09;4435231;32;12421;-75
2020/12/17 01:16:27;;;;;;;;;44.33;42.00;;;;;4.45;64.29;102615.91;4436081;32;12344;-75
2020/12/17 01:18:54;;;;;;;;;49.67;45.33;;;;;4.50;64.26;102615.16;4434350;32;12318;-75
2020/12/17 01:21:50;;;;;;;;;44.33;42.00;;;;;4.45;64.40;102613.16;4422893;32;12310;-75
2020/12/17 01:24:22;;;;;;;;;47.00;44.67;;;;;4.48;64.07;102612.66;4435832;32;12419;-75
2020/12/17 01:27:18;;;;;;;;;55.67;48.33;;;;;4.40;64.82;102607.56;4435398;32;12340;-75
2020/12/17 01:29:48;;;;;;;;;53.00;47.00;;;;;4.37;64.46;102617.09;4435929;32;8894;-75
2020/12/17 01:32:34;;;;;;;;;45.67;42.67;;;;;4.37;64.42;102611.62;4443537;32;8884;-75
2020/12/17 01:35:01;;;;;;;;;53.00;48.33;;;;;4.51;63.85;102612.16;4452410;32;12309;-75
2020/12/17 01:37:45;;;;;;;;;56.67;46.33;;;;;4.56;63.92;102609.53;4445866;32;9014;-74
2020/12/17 01:40:45;;;;;;;;;50.33;45.33;;;;;4.55;63.66;102613.34;4435481;32;8911;-75
2020/12/17 01:43:46;;;;;;;;;48.00;42.33;;;;;4.43;64.45;102618.03;4422809;32;12481;-75
2020/12/17 01:46:42;;;;;;;;;47.67;44.33;;;;;4.52;64.07;102612.97;4423661;32;12342;-75
2020/12/17 01:49:12;;;;;;;;;42.50;33.50;;;;;4.56;63.62;102615.00;4435302;32;12382;-75
2020/12/17 01:52:07;;;;;;;;;52.25;45.25;;;;;4.54;63.09;102621.81;4435393;32;12323;-75
2020/12/17 01:55:03;;;;;;;;;60.67;52.00;;;;;4.58;63.18;102620.25;4435245;32;12378;-75
2020/12/17 01:58:03;;;;;;;;;60.00;50.00;;;;;4.56;63.06;102620.50;4434592;32;9544;-75
2020/12/17 02:01:01;;;;;;;;;65.00;54.00;;;;;4.46;64.07;102629.34;4434977;32;8892;-75
2020/12/17 02:03:30;;;;;;;;;60.67;51.67;;;;;4.58;63.23;102625.72;4421529;32;8920;-75
2020/12/17 02:05:58;;;;;;;;;50.33;45.33;;;;;4.61;63.16;102622.50;4434913;32;8929;-75
2020/12/17 02:08:56;;;;;;;;;59.00;49.67;;;;;4.59;63.02;102624.62;4434776;32;12349;-75
2020/12/17 02:12:00;;;;;;;;;61.00;51.67;;;;;4.67;62.74;102625.09;4433496;32;8968;-75
2020/12/17 02:14:29;;;;;;;;;68.67;54.67;;;;;4.60;63.21;102618.94;4424533;32;8916;-74
2020/12/17 02:17:25;;;;;;;;;64.00;50.33;;;;;4.41;63.67;102618.28;4425728;32;8915;-75
2020/12/17 02:19:52;;;;;;;;;55.00;48.33;;;;;4.41;64.21;102621.00;4439543;32;8899;-75
2020/12/17 02:22:35;;;;;;;;;47.67;44.67;;;;;4.60;63.22;102618.94;4432177;32;12987;-75
2020/12/17 02:25:08;;;;;;;;;61.00;51.00;;;;;4.58;63.03;102622.97;4434789;32;12422;-75
2020/12/17 02:28:04;;;;;;;;;48.67;44.33;;;;;4.57;63.19;102608.44;4433438;32;8908;-75
2020/12/17 02:31:00;;;;;;;;;45.67;41.33;;;;;4.65;63.03;102615.44;4432996;32;8908;-75
2020/12/17 02:33:55;;;;;;;;;57.33;46.33;;;;;4.63;63.25;102615.69;4420982;32;8953;-76
2020/12/17 02:36:51;;;;;;;;;62.00;45.00;;;;;4.57;63.36;102613.94;4434379;32;12446;-76
2020/12/17 02:39:25;;;;;;;;;58.67;45.33;;;;;4.45;63.47;102608.50;4421523;32;8887;-76
2020/12/17 02:42:21;;;;;;;;;60.67;49.33;;;;;4.57;63.50;102607.62;4430323;32;8880;-75
2020/12/17 02:44:49;;;;;;;;;58.33;50.00;;;;;4.52;63.33;102607.50;4424586;32;9544;-76
2020/12/17 02:47:44;;;;;;;;;38.50;38.25;;;;;4.43;63.70;102616.09;4433358;32;12349;-76
2020/12/17 02:50:14;;;;;;;;;40.50;38.00;;;;;4.49;63.66;102618.97;4434532;32;12351;-76
2020/12/17 02:52:41;;;;;;;;;37.25;37.25;;;;;4.46;63.68;102623.03;4420362;32;12426;-76
2020/12/17 02:55:10;;;;;;;;;47.00;41.25;;;;;4.46;63.87;102623.03;4418928;32;12357;-76
2020/12/17 02:57:55;;;;;;;;;51.25;44.25;;;;;4.47;63.80;102622.78;4419324;32;12396;-75
2020/12/17 03:00:37;;;;;;;;;45.50;42.50;;;;;4.63;63.81;102623.91;4423448;32;13079;-76
2020/12/17 03:03:13;;;;;;;;;40.50;37.25;;;;;4.52;63.52;102622.03;4444939;32;12374;-75
2020/12/17 03:05:41;;;;;;;;;31.00;30.50;;;;;4.40;63.97;102626.75;4448901;32;12442;-75
2020/12/17 03:08:17;;;;;;;;;32.75;31.50;;;;;4.54;63.71;102628.12;4450819;32;12419;-75
2020/12/17 03:10:46;;;;;;;;;40.25;38.50;;;;;4.47;63.45;102619.22;4436835;32;12388;-76
2020/12/17 03:13:14;;;;;;;;;33.50;32.25;;;;;4.49;63.70;102621.69;4423645;32;12411;-74
2020/12/17 03:15:42;;;;;;;;;27.50;27.50;;;;;4.37;64.59;102621.72;4434564;32;12338;-74
2020/12/17 03:18:38;;;;;;;;;28.50;28.50;;;;;4.50;63.75;102615.97;4432813;32;12328;-74
2020/12/17 03:21:06;;;;;;;;;27.00;27.00;;;;;4.47;63.82;102608.25;4433994;32;13011;-75
2020/12/17 03:24:03;;;;;;;;;32.25;31.25;;;;;4.45;63.99;102610.41;4432776;32;12491;-74
2020/12/17 03:26:34;;;;;;;;;23.00;23.00;;;;;4.41;63.97;102609.22;4435450;32;12342;-75
2020/12/17 03:29:30;;;;;;;;;32.00;32.00;;;;;4.39;64.13;102614.13;4433638;32;13050;-75
2020/12/17 03:31:57;;;;;;;;;39.00;38.50;;;;;4.48;63.71;102618.12;4431262;32;12331;-75
2020/12/17 03:34:47;;;;;;;;;36.00;33.50;;;;;4.40;63.99;102608.38;4434614;32;12325;-75
2020/12/17 03:37:15;;;;;;;;;37.25;36.50;;;;;4.41;63.98;102601.00;4431471;32;12509;-75
2020/12/17 03:40:11;;;;;;;;;36.50;35.00;;;;;4.46;64.04;102607.44;4421724;32;12334;-75
2020/12/17 03:42:39;;;;;;;;;35.50;35.50;;;;;4.43;63.97;102607.88;4432504;32;12395;-75
2020/12/17 03:45:19;;;;;;;;;38.75;36.50;;;;;4.52;63.49;102612.97;4418457;32;12348;-75
2020/12/17 03:48:09;;;;;;;;;29.25;28.00;;;;;4.33;64.44;102610.44;4425180;32;12315;-75
2020/12/17 03:51:05;;;;;;;;;22.25;22.25;;;;;4.38;63.92;102612.47;4419321;32;12364;-75
2020/12/17 03:54:00;;;;;;;;;22.25;20.25;;;;;4.44;63.73;102617.78;4433706;32;12372;-75
2020/12/17 03:56:32;;;;;;;;;21.00;18.75;;;;;4.45;63.69;102616.72;4433566;32;12331;-75
2020/12/17 03:59:13;;;;;;;;;29.50;26.25;;;;;4.59;63.62;102619.16;4418822;32;12368;-74
2020/12/17 04:02:09;;;;;;;;;26.50;26.25;;;;;4.54;63.40;102621.81;4417667;32;12478;-75
2020/12/17 04:04:40;;;;;;;;;23.50;23.50;;;;;4.45;63.48;102613.16;4430076;32;13054;-75
2020/12/17 04:07:08;;;;;;;;;25.25;24.50;;;;;4.57;63.38;102616.66;4433871;32;12338;-75
2020/12/17 04:09:45;;;;;;;;;21.50;19.75;;;;;4.42;63.85;102608.12;4433361;32;12424;-75
2020/12/17 04:12:40;;;;;;;;;24.75;24.00;;;;;4.39;63.58;102620.44;4432538;32;12310;-75
2020/12/17 04:15:36;;;;;;;;;23.00;23.00;;;;;4.44;63.41;102616.94;4433356;32;12390;-74
2020/12/17 04:18:03;;;;;;;;;33.50;33.50;;;;;4.47;63.05;102609.09;4432277;32;12376;-76
2020/12/17 04:21:01;;;;;;;;;31.25;25.25;;;;;4.50;63.16;102618.72;4436205;32;12413;-75
2020/12/17 04:23:56;;;;;;;;;29.50;29.50;;;;;4.46;62.96;102623.88;4433017;32;12526;-75
2020/12/17 04:26:51;;;;;;;;;23.25;23.25;;;;;4.58;62.83;102622.97;4433232;32;12360;-75
2020/12/17 04:29:48;;;;;;;;;26.00;25.75;;;;;4.55;62.90;102623.47;4418457;32;12536;-74
2020/12/17 04:32:23;;;;;;;;;32.75;30.00;;;;;4.55;63.22;102627.06;4433287;32;12990;-75
2020/12/17 04:35:19;;;;;;;;;40.50;33.75;;;;;4.58;63.33;102632.03;4433216;32;12358;-76
2020/12/17 04:38:14;;;;;;;;;28.50;28.50;;;;;4.62;63.17;102627.75;4433815;32;12467;-76
2020/12/17 04:40:42;;;;;;;;;22.75;22.75;;;;;4.68;62.89;102628.69;4432899;32;12334;-76
2020/12/17 04:43:30;;;;;;;;;28.00;28.00;;;;;4.44;63.44;102622.41;4433987;32;12346;-76
2020/12/17 04:46:02;;;;;;;;;34.00;32.00;;;;;4.37;63.40;102632.69;4432760;32;12314;-76
2020/12/17 04:48:59;;;;;;;;;27.75;27.00;;;;;4.38;63.52;102626.97;4432284;32;12450;-76
2020/12/17 04:51:56;;;;;;;;;22.25;22.25;;;;;4.40;63.33;102627.56;4433513;32;12406;-76
2020/12/17 04:54:52;;;;;;;;;40.00;37.25;;;;;4.34;63.59;102633.19;4434973;32;13061;-76
2020/12/17 04:57:51;;;;;;;;;37.75;33.50;;;;;4.46;63.25;102640.31;4435542;32;12339;-75
2020/12/17 05:00:52;;;;;;;;;24.00;24.00;;;;;4.35;63.47;102643.87;4434680;32;12413;-75
2020/12/17 05:03:22;;;;;;;;;38.75;36.25;;;;;4.41;63.16;102644.84;4434811;32;12993;-74
2020/12/17 05:05:53;;;;;;;;;35.25;35.00;;;;;4.36;63.35;102648.28;4429786;32;12325;-74
2020/12/17 05:08:21;;;;;;;;;31.50;30.75;;;;;4.34;63.77;102644.97;4434131;32;12330;-75
2020/12/17 05:10:49;;;;;;;;;26.75;26.25;;;;;4.38;63.46;102642.59;4435241;32;12343;-75
2020/12/17 05:13:19;;;;;;;;;20.00;20.00;;;;;4.28;63.44;102643.19;4433308;32;12315;-75
2020/12/17 05:15:47;;;;;;;;;30.00;29.00;;;;;4.32;63.54;102646.28;4435265;32;12560;-75
2020/12/17 05:18:15;;;;;;;;;19.50;19.00;;;;;4.18;63.91;102649.28;4433917;32;12882;-76
2020/12/17 05:20:50;;;;;;;;;31.75;24.00;;;;;4.18;63.57;102657.50;4436081;32;12308;-75
2020/12/17 05:23:49;;;;;;;;;34.50;30.00;;;;;4.28;64.17;102656.06;4425392;32;12368;-76
2020/12/17 05:26:25;;;;;;;;;29.75;29.25;;;;;4.27;63.58;102666.19;4435451;32;12333;-75
2020/12/17 05:29:16;;;;;;;;;30.75;29.00;;;;;4.20;64.02;102662.72;4439191;32;12299;-75
2020/12/17 05:32:18;;;;;;;;;30.50;28.25;;;;;4.24;63.71;102666.69;4434786;32;12521;-75
2020/12/17 05:35:16;;;;;;;;;36.00;33.25;;;;;4.25;63.53;102667.50;4435378;32;12334;-75
2020/12/17 05:37:44;;;;;;;;;27.75;23.75;;;;;4.07;64.32;102677.53;4436290;32;12315;-75
2020/12/17 05:40:14;;;;;;;;;41.00;32.50;;;;;4.05;64.19;102682.38;4437092;32;12327;-76
2020/12/17 05:42:51;;;;;;;;;31.75;30.75;;;;;4.00;64.60;102682.28;4448017;32;12364;-75
2020/12/17 05:45:26;;;;;;;;;28.25;28.25;;;;;4.14;64.16;102677.37;4451401;32;13026;-76
2020/12/17 05:48:21;;;;;;;;;23.25;21.75;;;;;4.09;63.88;102685.50;4449860;32;12412;-76
2020/12/17 05:51:19;;;;;;;;;30.00;30.00;;;;;4.11;64.18;102681.44;4445667;32;12427;-76
2020/12/17 05:54:22;;;;;;;;;28.25;27.00;;;;;4.14;64.41;102689.19;4433480;32;12469;-76
2020/12/17 05:57:19;;;;;;;;;33.00;31.75;;;;;4.16;63.72;102697.16;4434502;32;12339;-75
2020/12/17 06:00:20;;;;;;;;;28.50;27.75;;;;;4.14;64.19;102693.81;4434833;32;12577;-76
2020/12/17 06:02:49;;;;;;;;;25.75;25.75;;;;;4.05;64.57;102693.34;4435142;32;13109;-75
2020/12/17 06:05:45;;;;;;;;;40.75;36.50;;;;;4.20;64.51;102695.59;4434495;32;12645;-75
2020/12/17 06:08:41;;;;;;;;;23.75;23.75;;;;;4.16;64.18;102699.91;4435105;32;12345;-76
2020/12/17 06:11:15;;;;;;;;;44.33;43.00;;;;;4.12;64.45;102699.53;4434103;32;12308;-76
2020/12/17 06:14:12;;;;;;;;;24.00;24.00;;;;;4.08;64.35;102700.25;4434945;32;8907;-75
2020/12/17 06:17:09;;;;;;;;;38.50;35.25;;;;;3.98;63.79;102700.84;4434543;32;12354;-74
2020/12/17 06:20:06;;;;;;;;;24.75;24.50;;;;;4.03;64.05;102698.22;4435042;32;12386;-75
2020/12/17 06:23:08;;;;;;;;;25.50;25.50;;;;;4.07;63.95;102688.47;4433161;32;12326;-76
2020/12/17 06:25:55;;;;;;;;;27.75;27.25;;;;;3.97;64.25;102693.69;4435020;32;12379;-76
2020/12/17 06:28:53;;;;;;;;;23.25;23.25;;;;;3.99;64.66;102696.19;4434777;32;12446;-76
2020/12/17 06:31:26;;;;;;;;;28.25;28.25;;;;;4.11;64.27;102691.56;4437807;32;12347;-75
2020/12/17 06:34:06;;;;;;;;;32.50;32.50;;;;;3.98;64.43;102695.38;4435026;32;12307;-76
2020/12/17 06:36:49;;;;;;;;;39.67;38.67;;;;;4.21;63.86;102690.94;4435025;32;12302;-82
2020/12/17 06:39:18;;;;;;;;;34.00;34.00;;;;;4.39;63.79;102697.16;4430393;32;12336;-76
2020/12/17 06:42:36;;;;;;;;;29.75;29.75;;;;;5.05;68.40;102702.31;4434707;32;13073;-76
2020/12/17 06:45:34;;;;;;;;;25.50;25.25;;;;;4.87;64.16;102697.84;4433662;32;12377;-76
2020/12/17 06:48:34;;;;;;;;;30.00;27.00;;;;;4.68;63.08;102700.78;4433838;32;13102;-76
2020/12/17 06:51:34;;;;;;;;;22.50;22.50;;;;;4.64;62.87;102699.59;4434521;32;12343;-75
2020/12/17 06:54:29;;;;;;;;;27.75;27.50;;;;;4.65;62.75;102697.69;4432157;32;12373;-76
2020/12/17 06:57:12;;;;;;;;;24.50;23.25;;;;;4.64;62.22;102709.72;3684899;32;24449461;-76
2020/12/17 07:00:09;;;;;;;;;26.75;26.75;;;;;4.69;62.27;102698.88;4447567;32;8898;-77
2020/12/17 07:03:05;;;;;;;;;32.50;24.50;;;;;4.72;61.99;102710.16;4443718;32;12339;-77
2020/12/17 07:06:17;;;;;;;;;27.00;27.00;;;;;4.62;62.43;102707.22;4433296;32;12323;-75
2020/12/17 07:08:59;;;;;;;;;29.50;29.50;;;;;4.67;62.37;102698.25;4429313;32;13126;-74
2020/12/17 07:11:55;;;;;;;;;27.75;25.50;;;;;4.52;62.23;102701.50;4433423;32;12423;-74
2020/12/17 07:14:25;;;;;;;;;33.00;31.00;;;;;4.64;62.70;102699.59;4433715;32;12298;-75
2020/12/17 07:17:01;;;;;;;;;32.25;30.00;;;;;4.76;62.37;102701.47;4434743;32;12366;-75
2020/12/17 07:19:43;;;;;;;;;31.75;31.75;;;;;4.82;62.37;102700.47;4433182;32;12390;-75
2020/12/17 07:22:49;;;;;;;;;23.50;21.50;;;;;4.87;62.05;102697.84;4433641;32;13114;-75
2020/12/17 07:25:49;;;;;;;;;26.50;26.25;;;;;4.79;61.91;102690.00;4442099;32;12373;-75
2020/12/17 07:28:24;;;;;;;;;24.50;24.50;;;;;4.95;61.55;102697.47;4449400;32;12334;-74
2020/12/17 07:31:25;;;;;;;;;22.00;22.00;;;;;4.89;61.36;102693.78;4427187;32;12475;-75
2020/12/17 07:34:22;;;;;;;;;25.75;23.25;;;;;4.77;61.22;102697.66;4428831;32;12393;-75
2020/12/17 07:37:51;;;;;;;;;14.00;14.00;;;;;4.69;61.35;102686.00;4433150;32;12341;-74
2020/12/17 07:40:47;;;;;;;;;20.75;20.75;;;;;4.68;61.25;102689.00;4432876;32;12363;-75
2020/12/17 07:43:43;;;;;;;;;28.00;28.00;;;;;4.43;62.17;102689.25;4432834;32;12388;-75
2020/12/17 07:46:12;;;;;;;;;26.75;26.25;;;;;4.25;62.53;102683.94;4433693;32;12315;-76
2020/12/17 07:48:55;;;;;;;;;26.50;26.00;;;;;4.36;62.79;102685.81;4431882;32;12421;-76
2020/12/17 07:51:51;;;;;;;;;28.25;27.00;;;;;4.45;62.54;102687.97;4431674;32;12370;-76
2020/12/17 07:54:25;;;;;;;;;33.50;30.50;;;;;4.39;62.82;102693.56;4433059;32;12388;-77
2020/12/17 07:57:20;;;;;;;;;30.25;29.50;;;;;4.62;62.54;102681.72;4432048;32;12353;-77
2020/12/17 08:00:17;;;;;;;;;26.25;20.50;;;;;4.59;62.26;102687.69;4426721;32;12910;-76
2020/12/17 08:03:13;;;;;;;;;18.50;18.50;;;;;4.60;62.29;102690.19;4401780;32;12391;-77
2020/12/17 08:06:11;;;;;;;;;24.75;23.00;;;;;4.66;62.83;102700.16;4401179;32;12382;-77
2020/12/17 08:08:39;;;;;;;;;35.75;33.75;;;;;4.73;61.83;102695.38;4400373;32;12319;-75
2020/12/17 08:11:34;;;;;;;;;33.00;33.00;;;;;4.80;61.83;102695.25;4415937;32;12429;-77
2020/12/17 08:14:08;;;;;;;;;34.25;30.00;;;;;4.90;61.56;102689.12;4404138;32;12390;-77
2020/12/17 08:16:49;;;;;;;;;29.50;29.50;;;;;4.79;62.41;102687.28;4405308;32;12310;-76
2020/12/17 08:19:58;;;;;;;;;34.25;31.75;;;;;4.93;61.64;102692.22;4417608;32;12337;-78
2020/12/17 08:22:34;;;;;;;;;10.00;7.75;;;;;4.90;61.45;102695.44;4417966;32;12324;-76
2020/12/17 08:25:21;;;;;;;;;36.25;33.00;;;;;4.47;61.96;102690.47;4390657;32;12327;-77
2020/12/17 08:28:06;;;;;;;;;33.25;30.50;;;;;4.77;61.47;102689.44;4391996;32;12454;-79
2020/12/17 08:31:07;;;;;;;;;30.50;29.50;;;;;4.76;61.52;102688.59;4399560;32;12995;-77
2020/12/17 08:33:40;;;;;;;;;45.00;37.25;;;;;4.83;61.85;102693.91;4406773;32;13004;-77
2020/12/17 08:36:38;;;;;;;;;36.25;35.25;;;;;4.87;62.37;102700.59;4394701;32;13135;-76
2020/12/17 08:39:34;;;;;;;;;36.00;34.75;;;;;4.94;61.85;102699.38;4394488;32;12345;-76
2020/12/17 08:42:37;;;;;;;;;50.75;44.50;;;;;4.81;62.04;102696.09;4396792;32;12430;-76
2020/12/17 08:45:12;;;;;;;;;45.00;43.25;;;;;5.01;62.27;102699.25;4405203;32;12396;-77
2020/12/17 08:48:05;;;;;;;;;40.00;38.00;;;;;4.98;62.59;102700.56;4405605;32;12343;-75
2020/12/17 08:50:44;;;;;;;;;56.75;48.00;;;;;5.14;61.81;102706.34;4406634;32;13035;-74
2020/12/17 08:53:42;;;;;;;;;52.33;45.00;;;;;5.21;61.57;102712.50;4405804;32;12505;-75
2020/12/17 08:56:37;;;;;;;;;56.33;48.67;;;;;5.07;61.85;102711.97;4404667;32;8936;-75
2020/12/17 08:59:10;;;;;;;;;60.67;44.67;;;;;5.17;61.03;102708.59;4406264;32;12322;-76
2020/12/17 09:02:07;;;;;;;;;75.33;59.67;;;;;5.22;61.04;102709.53;4404346;32;13090;-76
2020/12/17 09:05:04;;;;;;;;;85.67;62.33;;;;;5.09;61.25;102718.03;4404746;32;8907;-76
2020/12/17 09:07:36;;;;;;;;;78.67;61.67;;;;;4.95;61.27;102716.66;4405482;32;8947;-75
2020/12/17 09:10:34;;;;;;;;;83.67;64.00;;;;;4.92;61.65;102714.41;4405357;32;8903;-75
2020/12/17 09:13:17;;;;;;;;;93.00;72.00;;;;;4.90;61.71;102713.81;4405741;32;9582;-76
2020/12/17 09:16:13;;;;;;;;;76.00;58.00;;;;;5.00;61.98;102719.50;4403620;32;8902;-76
2020/12/17 09:19:09;;;;;;;;;73.67;54.00;;;;;5.06;61.57;102709.44;4393440;32;8914;-76
2020/12/17 09:22:07;;;;;;;;;75.00;61.67;;;;;5.09;61.07;102704.34;4404031;32;8919;-75
2020/12/17 09:25:03;;;;;;;;;67.33;56.33;;;;;4.95;61.45;102700.22;4404131;32;8903;-75
2020/12/17 09:27:59;;;;;;;;;69.00;55.00;;;;;5.00;61.92;102708.53;4404169;32;8958;-75
2020/12/17 09:30:54;;;;;;;;;65.00;52.67;;;;;5.06;61.73;102714.94;4394026;32;8915;-76
2020/12/17 09:33:36;;;;;;;;;50.33;46.00;;;;;4.97;61.94;102712.59;4404709;32;8921;-77
2020/12/17 09:36:13;;;;;;;;;64.67;51.67;;;;;5.03;61.25;102714.34;4405655;32;8894;-77
2020/12/17 09:38:42;;;;;;;;;56.67;48.33;;;;;5.06;61.73;102706.72;4406074;32;8971;-77
2020/12/17 09:41:49;;;;;;;;;61.00;50.00;;;;;4.98;62.14;102707.94;4404685;32;8942;-76
2020/12/17 09:44:34;;;;;;;;;41.00;36.75;;;;;5.06;61.56;102710.31;4406497;32;8905;-77
2020/12/17 09:47:05;;;;;;;;;37.25;36.50;;;;;4.91;61.50;102715.50;4405304;32;12323;-76
2020/12/17 09:50:13;;;;;;;;;32.00;32.00;;;;;4.79;61.99;102706.47;4403491;32;12998;-76
2020/12/17 09:52:41;;;;;;;;;27.50;27.50;;;;;4.95;62.09;102708.44;4395898;32;12392;-75
2020/12/17 09:55:33;;;;;;;;;31.00;31.00;;;;;5.03;62.30;102708.03;4406911;32;12945;-75
2020/12/17 09:58:28;;;;;;;;;33.50;32.75;;;;;4.99;62.04;102707.72;4416372;32;12371;-75
2020/12/17 10:01:25;;;;;;;;;26.25;26.25;;;;;5.16;61.78;102699.53;4424414;32;12386;-76
2020/12/17 10:04:20;;;;;;;;;35.50;32.00;;;;;4.96;61.93;102697.22;4423404;32;12434;-75
2020/12/17 10:07:13;;;;;;;;;29.25;27.75;;;;;4.75;62.28;102695.13;4425775;32;12482;-75
2020/12/17 10:09:45;;;;;;;;;38.00;37.00;;;;;4.82;62.60;102693.09;4435483;32;12316;-77
2020/12/17 10:12:13;;;;;;;;;39.25;38.75;;;;;5.12;61.55;102695.59;4434766;32;12346;-74
2020/12/17 10:15:10;;;;;;;;;44.00;42.50;;;;;5.12;61.84;102694.78;4434653;32;13098;-76
2020/12/17 10:17:44;;;;;;;;;28.00;27.00;;;;;5.03;61.76;102688.84;4433262;32;12393;-75
2020/12/17 10:20:39;;;;;;;;;37.75;34.00;;;;;5.18;61.24;102683.66;4428297;32;12374;-75
2020/12/17 10:23:35;;;;;;;;;45.25;41.25;;;;;5.16;61.66;102684.97;4433692;32;12337;-75
2020/12/17 10:26:02;;;;;;;;;42.75;41.25;;;;;5.12;61.87;102690.13;4435054;32;12365;-75
2020/12/17 10:29:01;;;;;;;;;45.00;42.50;;;;;5.20;61.67;102684.22;4431057;32;12538;-76
2020/12/17 10:31:58;;;;;;;;;41.75;39.50;;;;;5.34;61.31;102690.25;4431194;32;12383;-76
2020/12/17 10:34:25;;;;;;;;;38.00;36.50;;;;;5.13;61.65;102685.47;4433781;32;12392;-77
2020/12/17 10:37:21;;;;;;;;;35.75;34.25;;;;;4.95;61.90;102683.75;4426100;32;12329;-76
2020/12/17 10:39:49;;;;;;;;;21.00;19.00;;;;;4.94;62.09;102687.56;4429306;32;12325;-76
2020/12/17 10:42:46;;;;;;;;;37.75;35.00;;;;;4.68;62.34;102692.56;4430307;32;12350;-76
2020/12/17 10:45:37;;;;;;;;;32.00;32.00;;;;;4.64;63.01;102691.37;4413564;32;12386;-78
2020/12/17 10:48:37;;;;;;;;;45.50;39.00;;;;;4.56;63.64;102694.47;4434224;32;12342;-77
2020/12/17 10:51:06;;;;;;;;;35.25;33.75;;;;;4.73;63.15;102692.66;4420247;32;12373;-76
2020/12/17 10:54:02;;;;;;;;;29.25;28.00;;;;;4.70;63.34;102687.66;4434151;32;12335;-77
2020/12/17 10:56:30;;;;;;;;;37.50;34.75;;;;;4.77;62.93;102694.91;4433662;32;12462;-76
2020/12/17 10:59:25;;;;;;;;;44.25;41.75;;;;;4.71;63.24;102688.50;4425106;32;12426;-74
2020/12/17 11:01:57;;;;;;;;;51.50;43.75;;;;;4.78;63.39;102688.34;4409255;32;12417;-73
2020/12/17 11:04:53;;;;;;;;;44.75;40.75;;;;;4.89;62.93;102684.72;4431085;32;12396;-73
2020/12/17 11:07:21;;;;;;;;;40.50;38.50;;;;;4.94;62.17;102684.84;4433072;32;12411;-73
2020/12/17 11:09:48;;;;;;;;;34.75;32.00;;;;;4.90;62.44;102679.00;4433984;32;12426;-73
2020/12/17 11:12:39;;;;;;;;;33.50;30.75;;;;;4.92;61.87;102671.38;4426788;32;12334;-73
2020/12/17 11:15:34;;;;;;;;;25.75;24.00;;;;;4.97;61.86;102676.94;4432337;32;12442;-72
2020/12/17 11:18:17;;;;;;;;;33.25;28.75;;;;;4.52;62.47;102685.06;4435160;32;13004;-73
2020/12/17 11:20:45;;;;;;;;;32.50;32.50;;;;;4.70;62.47;102679.44;4434786;32;12370;-73
2020/12/17 11:23:41;;;;;;;;;40.50;34.00;;;;;4.69;62.89;102685.16;4432375;32;12394;-73
2020/12/17 11:26:54;;;;;;;;;45.25;39.75;;;;;4.73;63.42;102689.91;4433077;32;12365;-72
2020/12/17 11:29:50;;;;;;;;;38.25;30.50;;;;;4.75;63.30;102689.66;4425798;32;12365;-72
2020/12/17 11:32:19;;;;;;;;;34.50;34.50;;;;;4.70;63.37;102690.41;4433820;32;12360;-74
2020/12/17 11:35:16;;;;;;;;;38.25;34.25;;;;;4.80;62.82;102687.03;4432423;32;12372;-72
2020/12/17 11:38:15;;;;;;;;;31.00;31.00;;;;;5.01;62.64;102696.50;4423188;32;12344;-73
2020/12/17 11:40:43;;;;;;;;;25.50;25.50;;;;;4.75;62.94;102689.66;4418900;32;13058;-73
2020/12/17 11:43:40;;;;;;;;;30.75;29.75;;;;;4.87;62.39;102681.41;4418976;32;12383;-72
2020/12/17 11:46:38;;;;;;;;;36.50;30.25;;;;;4.85;62.21;102672.59;4418155;32;12385;-72
2020/12/17 11:49:33;;;;;;;;;25.25;19.00;;;;;4.96;62.15;102666.22;4418245;32;12389;-70
2020/12/17 11:52:29;;;;;;;;;37.75;37.75;;;;;4.96;61.55;102671.69;4426894;32;12325;-71
2020/12/17 11:54:56;;;;;;;;;34.25;32.00;;;;;4.72;62.27;102660.81;4433715;32;12371;-71
2020/12/17 11:57:24;;;;;;;;;21.00;19.00;;;;;4.69;62.82;102671.47;4434898;32;12329;-72
2020/12/17 12:00:19;;;;;;;;;30.50;30.50;;;;;4.79;62.71;102665.34;4432624;32;12530;-71
2020/12/17 12:02:49;;;;;;;;;41.75;38.50;;;;;4.99;62.20;102665.75;4436951;32;12437;-71
2020/12/17 12:05:39;;;;;;;;;32.25;30.00;;;;;4.70;62.72;102656.69;4438442;32;12345;-72
2020/12/17 12:08:37;;;;;;;;;34.25;34.00;;;;;4.69;62.52;102655.00;4438067;32;12381;-73
2020/12/17 12:11:24;;;;;;;;;37.00;37.00;;;;;4.58;62.67;102658.59;4438917;32;12365;-72
2020/12/17 12:14:11;;;;;;;;;36.00;32.75;;;;;4.60;62.70;102656.44;4429743;32;12567;-72
2020/12/17 12:17:06;;;;;;;;;16.00;14.75;;;;;4.61;63.48;102658.16;4437716;32;12448;-72
2020/12/17 12:20:02;;;;;;;;;42.75;36.50;;;;;4.59;62.76;102657.53;4437186;32;12306;-71
2020/12/17 12:22:59;;;;;;;;;36.75;34.75;;;;;4.53;63.50;102653.87;4435533;32;12461;-72
2020/12/17 12:25:27;;;;;;;;;38.25;32.00;;;;;4.54;63.42;102660.19;4437146;32;12392;-71
2020/12/17 12:27:55;;;;;;;;;102.67;88.00;;;;;4.57;63.11;102656.94;4424991;32;12334;-73
2020/12/17 12:30:54;;;;;;;;;40.25;38.00;;;;;4.54;63.47;102669.25;4431814;32;8977;-72
2020/12/17 12:33:49;;;;;;;;;40.25;40.25;;;;;4.51;63.61;102666.12;4429331;32;12353;-72
2020/12/17 12:36:58;;;;;;;;;37.50;34.75;;;;;4.35;64.02;102671.28;4438276;32;12394;-73
2020/12/17 12:39:53;;;;;;;;;36.00;33.00;;;;;4.41;63.56;102666.75;4426170;32;12346;-72
2020/12/17 12:42:21;;;;;;;;;32.00;30.00;;;;;4.52;62.81;102668.62;4437575;32;13022;-71
2020/12/17 12:44:48;;;;;;;;;41.50;36.00;;;;;4.55;62.58;102664.59;4437753;32;12367;-71
2020/12/17 12:47:30;;;;;;;;;33.75;33.00;;;;;4.51;63.04;102663.38;4430872;32;12433;-71